createdAt,value
2022-12-11T00:00:08.775Z,0.66
2022-12-11T00:02:35.655Z,0.65
2022-12-11T00:05:02.248Z,0.75
2022-12-11T00:07:28.759Z,0.76
2022-12-11T00:09:55.244Z,0.68
2022-12-11T00:12:21.768Z,0.73
2022-12-11T00:14:48.312Z,0.55
2022-12-11T00:17:14.783Z,0.60
2022-12-11T00:19:41.304Z,0.52
2022-12-11T00:22:08.115Z,0.62
2022-12-11T00:24:34.597Z,0.75
2022-12-11T00:27:01.099Z,0.69
2022-12-11T00:29:27.601Z,0.73
2022-12-11T00:31:55.537Z,0.58
2022-12-11T00:34:21.940Z,0.70
2022-12-11T00:36:48.791Z,0.75
2022-12-11T00:39:15.360Z,0.70
2022-12-11T00:41:41.885Z,0.75
2022-12-11T00:44:08.469Z,0.60
2022-12-11T00:46:34.942Z,0.68
2022-12-11T00:49:01.424Z,0.75
2022-12-11T00:51:27.978Z,0.58
2022-12-11T00:53:54.427Z,0.58
2022-12-11T00:56:22.364Z,0.66
2022-12-11T01:01:39.855Z,0.76
2022-12-11T01:04:06.329Z,0.70
2022-12-11T01:06:32.879Z,0.62
2022-12-11T01:09:18.211Z,0.66
2022-12-11T01:11:44.706Z,0.65
2022-12-11T01:14:11.755Z,0.60
2022-12-11T01:16:38.448Z,0.53
2022-12-11T01:19:05.038Z,0.69
2022-12-11T01:21:31.583Z,0.72
2022-12-11T01:23:58.052Z,0.80
2022-12-11T01:26:24.639Z,0.58
2022-12-11T01:28:51.918Z,0.75
2022-12-11T01:31:20.080Z,0.69
2022-12-11T01:33:46.791Z,0.70
2022-12-11T01:36:19.901Z,0.75
2022-12-11T01:38:48.695Z,0.75
2022-12-11T01:41:16.837Z,0.70
2022-12-11T01:44:21.850Z,0.68
2022-12-11T01:46:48.369Z,0.73
2022-12-11T01:49:17.599Z,0.76
2022-12-11T01:52:06.099Z,0.79
2022-12-11T01:54:34.496Z,0.81
2022-12-11T01:57:07.078Z,0.79
2022-12-11T01:59:37.508Z,0.81
2022-12-11T02:02:12.587Z,0.75
2022-12-11T02:04:41.867Z,0.73
2022-12-11T02:07:09.705Z,0.77
2022-12-11T02:09:38.270Z,0.75
2022-12-11T02:12:07.407Z,0.79
2022-12-11T02:14:47.480Z,0.73
2022-12-11T02:17:23.818Z,0.77
2022-12-11T02:19:53.017Z,0.83
2022-12-11T02:22:53.831Z,0.80
2022-12-11T02:25:32.949Z,0.79
2022-12-11T02:28:41.065Z,0.79
2022-12-11T02:31:22.441Z,0.70
2022-12-11T02:33:58.490Z,0.69
2022-12-11T02:36:28.719Z,0.76
2022-12-11T02:38:58.836Z,0.84
2022-12-11T02:41:27.347Z,0.81
2022-12-11T02:43:56.409Z,0.87
2022-12-11T02:46:24.839Z,0.87
2022-12-11T02:48:52.439Z,0.86
2022-12-11T02:51:25.354Z,0.86
2022-12-11T02:53:54.530Z,0.77
2022-12-11T02:56:27.401Z,0.83
2022-12-11T02:59:09.037Z,0.77
2022-12-11T03:01:35.591Z,0.69
2022-12-11T03:04:02.471Z,0.73
2022-12-11T03:06:34.466Z,0.81
2022-12-11T03:09:01.011Z,0.87
2022-12-11T03:11:27.506Z,0.81
2022-12-11T03:13:54.720Z,0.80
2022-12-11T03:16:37.746Z,0.81
2022-12-11T03:19:04.210Z,0.79
2022-12-11T03:21:56.577Z,0.80
2022-12-11T03:24:25.961Z,0.80
2022-12-11T03:26:57.325Z,0.77
2022-12-11T03:29:35.365Z,0.81
2022-12-11T03:32:14.646Z,0.79
2022-12-11T03:34:50.622Z,0.77
2022-12-11T03:37:19.812Z,0.81
2022-12-11T03:39:51.875Z,0.72
2022-12-11T03:42:20.451Z,0.75
2022-12-11T03:44:49.414Z,0.76
2022-12-11T03:47:19.667Z,0.81
2022-12-11T03:49:48.496Z,0.80
2022-12-11T03:52:15.810Z,0.79
2022-12-11T03:54:45.828Z,0.75
2022-12-11T03:57:18.142Z,0.80
2022-12-11T03:59:44.798Z,0.86
2022-12-11T04:02:11.283Z,0.89
2022-12-11T04:04:39.100Z,0.84
2022-12-11T04:07:05.684Z,0.84
2022-12-11T04:09:34.384Z,0.77
2022-12-11T04:12:01.005Z,0.75
2022-12-11T04:14:46.195Z,0.76
2022-12-11T04:17:12.732Z,0.86
2022-12-11T04:19:57.982Z,0.89
2022-12-11T04:22:27.017Z,0.93
2022-12-11T04:24:53.684Z,0.87
2022-12-11T04:27:38.533Z,0.84
2022-12-11T04:30:10.438Z,0.77
2022-12-11T04:32:37.119Z,0.75
2022-12-11T04:35:03.908Z,0.72
2022-12-11T04:37:30.731Z,0.72
2022-12-11T04:39:57.231Z,0.86
2022-12-11T04:42:23.727Z,0.75
2022-12-11T04:44:50.263Z,0.80
2022-12-11T04:47:17.129Z,0.75
2022-12-11T04:49:43.678Z,0.79
2022-12-11T04:52:10.352Z,0.79
2022-12-11T04:54:36.838Z,0.76
2022-12-11T04:57:03.489Z,0.93
2022-12-11T04:59:30.262Z,0.87
2022-12-11T05:01:57.674Z,0.94
2022-12-11T05:04:24.231Z,0.94
2022-12-11T05:06:51.596Z,0.79
2022-12-11T05:09:18.274Z,0.90
2022-12-11T05:11:44.826Z,0.86
2022-12-11T05:14:11.335Z,0.79
2022-12-11T05:16:37.965Z,0.75
2022-12-11T05:19:04.571Z,0.68
2022-12-11T05:21:34.977Z,0.75
2022-12-11T05:24:01.983Z,0.70
2022-12-11T05:26:28.756Z,0.69
2022-12-11T05:28:55.414Z,0.75
2022-12-11T05:31:25.226Z,0.70
2022-12-11T05:33:52.624Z,0.75
2022-12-11T05:36:27.127Z,0.70
2022-12-11T05:38:53.997Z,0.72
2022-12-11T05:41:23.250Z,0.73
2022-12-11T05:43:50.264Z,0.73
2022-12-11T05:46:22.974Z,0.83
2022-12-11T05:48:52.005Z,0.75
2022-12-11T05:51:19.541Z,0.77
2022-12-11T05:53:47.940Z,0.83
2022-12-11T05:56:20.481Z,0.81
2022-12-11T05:58:47.878Z,0.90
2022-12-11T06:01:24.446Z,0.81
2022-12-11T06:03:51.571Z,0.91
2022-12-11T06:06:18.093Z,0.87
2022-12-11T06:08:44.620Z,0.99
2022-12-11T06:11:15.639Z,1.08
2022-12-11T06:13:43.874Z,0.94
2022-12-11T06:16:11.111Z,0.99
2022-12-11T06:18:40.354Z,0.96
2022-12-11T06:21:16.855Z,0.89
2022-12-11T06:23:44.405Z,0.89
2022-12-11T06:26:11.918Z,0.86
2022-12-11T06:28:39.020Z,0.93
2022-12-11T06:31:06.083Z,0.93
2022-12-11T06:33:32.613Z,0.87
2022-12-11T06:36:13.380Z,0.97
2022-12-11T06:38:40.420Z,0.89
2022-12-11T06:41:08.424Z,0.84
2022-12-11T06:43:36.406Z,0.90
2022-12-11T06:46:10.863Z,0.87
2022-12-11T06:48:37.963Z,0.90
2022-12-11T06:51:09.962Z,0.91
2022-12-11T06:53:36.726Z,0.79
2022-12-11T06:56:09.342Z,0.84
2022-12-11T06:58:37.195Z,0.73
2022-12-11T07:01:04.749Z,0.65
2022-12-11T07:03:31.368Z,0.69
2022-12-11T07:06:02.492Z,1.05
2022-12-11T07:08:32.051Z,0.97
2022-12-11T07:11:10.872Z,1.05
2022-12-11T07:13:37.664Z,0.97
2022-12-11T07:16:10.599Z,1.05
2022-12-11T07:18:42.605Z,0.91
2022-12-11T07:21:11.748Z,0.89
2022-12-11T07:23:38.359Z,0.93
2022-12-11T07:26:14.298Z,0.87
2022-12-11T07:28:41.722Z,0.87
2022-12-11T07:33:42.310Z,0.94
2022-12-11T07:36:11.388Z,0.97
2022-12-11T07:38:38.407Z,0.91
2022-12-11T07:41:07.037Z,1.23
2022-12-11T07:43:35.297Z,0.97
2022-12-11T07:46:03.575Z,1.04
2022-12-11T07:48:30.615Z,1.05
2022-12-11T07:51:08.099Z,0.87
2022-12-11T07:53:34.619Z,0.87
2022-12-11T07:56:01.214Z,0.94
2022-12-11T07:58:28.043Z,0.91
2022-12-11T08:00:57.438Z,1.00
2022-12-11T08:03:24.955Z,0.93
2022-12-11T08:05:53.011Z,0.94
2022-12-11T08:08:19.766Z,0.90
2022-12-11T08:10:46.578Z,0.87
2022-12-11T08:13:13.320Z,0.90
2022-12-11T08:15:39.786Z,0.96
2022-12-11T08:18:06.228Z,0.93
2022-12-11T08:20:33.734Z,0.89
2022-12-11T08:23:00.200Z,0.87
2022-12-11T08:25:26.643Z,0.75
2022-12-11T08:27:53.297Z,0.76
2022-12-11T08:30:19.751Z,0.84
2022-12-11T08:32:46.301Z,0.75
2022-12-11T08:35:13.133Z,0.75
2022-12-11T08:37:40.232Z,0.69
2022-12-11T08:40:07.533Z,0.72
2022-12-11T08:42:34.024Z,0.94
2022-12-11T08:45:00.497Z,0.96
2022-12-11T08:47:27.277Z,0.76
2022-12-11T08:49:53.739Z,0.79
2022-12-11T08:52:20.234Z,0.89
2022-12-11T08:54:46.718Z,0.89
2022-12-11T08:57:13.289Z,1.00
2022-12-11T08:59:39.948Z,1.05
2022-12-11T09:02:07.170Z,0.96
2022-12-11T09:04:33.619Z,0.90
2022-12-11T09:07:00.150Z,1.07
2022-12-11T09:09:27.124Z,1.14
2022-12-11T09:11:53.584Z,1.03
2022-12-11T09:14:20.082Z,1.11
2022-12-11T09:16:46.811Z,1.21
2022-12-11T09:19:15.071Z,1.24
2022-12-11T09:21:43.066Z,1.07
2022-12-11T09:24:10.586Z,1.26
2022-12-11T09:26:38.252Z,1.24
2022-12-11T09:29:06.069Z,1.24
2022-12-11T09:31:35.583Z,1.24
2022-12-11T09:34:05.004Z,1.24
2022-12-11T09:36:32.410Z,1.38
2022-12-11T09:39:06.634Z,1.17
2022-12-11T09:41:38.330Z,1.34
2022-12-11T09:44:38.647Z,1.26
2022-12-11T09:47:19.102Z,1.38
2022-12-11T09:49:49.190Z,1.31
2022-12-11T09:52:20.214Z,1.38
2022-12-11T09:54:52.773Z,1.31
2022-12-11T09:57:39.507Z,1.37
2022-12-11T10:00:08.252Z,1.27
2022-12-11T10:02:45.773Z,1.39
2022-12-11T10:05:31.931Z,1.34
2022-12-11T10:08:35.426Z,1.28
2022-12-11T10:11:29.829Z,1.28
2022-12-11T10:14:24.834Z,1.34
2022-12-11T10:16:56.247Z,1.21
2022-12-11T10:19:29.253Z,1.21
2022-12-11T10:21:56.793Z,1.11
2022-12-11T10:27:34.108Z,1.24
2022-12-11T10:30:13.055Z,1.48
2022-12-11T10:32:51.423Z,1.44
2022-12-11T10:35:33.349Z,1.34
2022-12-11T10:38:21.535Z,1.18
2022-12-11T10:40:52.636Z,1.32
2022-12-11T10:43:32.968Z,1.32
2022-12-11T10:45:59.625Z,1.30
2022-12-11T10:48:35.449Z,1.44
2022-12-11T10:51:11.598Z,1.49
2022-12-11T10:53:40.523Z,1.42
2022-12-11T10:56:07.744Z,1.35
2022-12-11T10:58:39.563Z,1.32
2022-12-11T11:01:15.202Z,1.35
2022-12-11T11:03:58.832Z,1.38
2022-12-11T11:06:26.847Z,1.42
2022-12-11T11:08:56.599Z,1.32
2022-12-11T11:11:34.183Z,1.35
2022-12-11T11:14:16.601Z,1.56
2022-12-11T11:16:45.927Z,1.58
2022-12-11T11:19:25.976Z,1.47
2022-12-11T11:21:56.591Z,1.45
2022-12-11T11:24:28.734Z,1.41
2022-12-11T11:27:12.698Z,1.37
2022-12-11T11:29:41.412Z,1.47
2022-12-11T11:32:25.143Z,1.55
2022-12-11T11:34:51.579Z,1.54
2022-12-11T11:37:34.386Z,1.52
2022-12-11T11:40:13.397Z,1.48
2022-12-11T11:42:54.752Z,1.44
2022-12-11T11:45:25.907Z,1.51
2022-12-11T11:48:09.472Z,1.54
2022-12-11T11:50:41.174Z,1.44
2022-12-11T11:53:13.809Z,1.51
2022-12-11T11:55:51.913Z,1.47
2022-12-11T11:58:37.095Z,1.52
2022-12-11T12:01:03.641Z,1.48
2022-12-11T12:03:30.293Z,1.45
2022-12-11T12:06:06.253Z,1.47
2022-12-11T12:08:48.876Z,1.47
2022-12-11T12:11:34.167Z,1.51
2022-12-11T12:14:00.576Z,1.55
2022-12-11T12:16:58.189Z,1.49
2022-12-11T12:19:39.806Z,1.52
2022-12-11T12:22:24.799Z,1.54
2022-12-11T12:25:02.852Z,1.55
2022-12-11T12:27:52.026Z,1.56
2022-12-11T12:30:22.837Z,1.55
2022-12-11T12:33:14.372Z,1.52
2022-12-11T12:36:12.924Z,1.63
2022-12-11T12:39:01.130Z,1.63
2022-12-11T12:41:52.588Z,1.55
2022-12-11T12:44:22.192Z,1.55
2022-12-11T12:47:04.679Z,1.52
2022-12-11T12:49:40.148Z,1.54
2022-12-11T12:52:16.126Z,1.62
2022-12-11T12:55:06.999Z,1.75
2022-12-11T12:57:35.094Z,1.89
2022-12-11T13:00:01.792Z,1.85
2022-12-11T13:02:29.499Z,1.97
2022-12-11T13:05:06.025Z,2.20
2022-12-11T13:07:33.926Z,2.07
2022-12-11T13:10:18.925Z,2.45
2022-12-11T13:12:46.661Z,2.45
2022-12-11T13:15:34.538Z,2.52
2022-12-11T13:18:03.780Z,2.31
2022-12-11T13:20:33.550Z,2.24
2022-12-11T13:23:05.889Z,2.26
2022-12-11T13:25:45.294Z,2.23
2022-12-11T13:28:23.447Z,2.26
2022-12-11T13:31:14.861Z,2.27
2022-12-11T13:33:45.994Z,2.31
2022-12-11T13:36:16.896Z,2.28
2022-12-11T13:39:04.104Z,2.27
2022-12-11T13:41:35.193Z,2.26
2022-12-11T13:44:03.057Z,2.28
2022-12-11T13:46:34.399Z,2.36
2022-12-11T13:49:08.584Z,2.26
2022-12-11T13:51:37.036Z,2.36
2022-12-11T13:54:04.808Z,2.13
2022-12-11T13:56:31.587Z,2.06
2022-12-11T13:58:58.087Z,2.13
2022-12-11T14:01:31.390Z,2.21
2022-12-11T14:04:09.681Z,2.06
2022-12-11T14:06:38.420Z,2.10
2022-12-11T14:09:06.722Z,2.10
2022-12-11T14:11:37.049Z,2.09
2022-12-11T14:14:06.804Z,2.16
2022-12-11T14:16:34.058Z,2.20
2022-12-11T14:19:07.195Z,2.16
2022-12-11T14:21:34.204Z,2.11
2022-12-11T14:24:06.703Z,2.10
2022-12-11T14:26:40.911Z,2.09
2022-12-11T14:29:07.647Z,1.97
2022-12-11T14:31:39.244Z,1.93
2022-12-11T14:34:44.405Z,1.97
2022-12-11T14:37:14.446Z,1.97
2022-12-11T14:39:47.719Z,1.92
2022-12-11T14:42:20.035Z,1.89
2022-12-11T14:44:50.373Z,1.90
2022-12-11T14:47:22.094Z,1.89
2022-12-11T14:49:58.859Z,1.92
2022-12-11T14:52:33.192Z,1.89
2022-12-11T14:55:22.588Z,1.86
2022-12-11T14:57:52.997Z,1.85
2022-12-11T15:00:28.765Z,1.82
2022-12-11T15:03:06.700Z,1.85
2022-12-11T15:05:40.351Z,1.82
2022-12-11T15:08:10.320Z,1.83
2022-12-11T15:10:41.915Z,1.85
2022-12-11T15:13:09.659Z,1.80
2022-12-11T15:15:47.736Z,1.83
2022-12-11T15:18:22.816Z,1.83
2022-12-11T15:20:56.547Z,1.85
2022-12-11T15:23:23.047Z,1.89
2022-12-11T15:25:58.822Z,1.83
2022-12-11T15:28:35.847Z,1.75
2022-12-11T15:31:22.138Z,1.78
2022-12-11T15:33:48.803Z,1.86
2022-12-11T15:36:30.672Z,1.75
2022-12-11T15:38:57.908Z,1.83
2022-12-11T15:41:25.530Z,1.85
2022-12-11T15:43:58.609Z,1.92
2022-12-11T15:46:25.486Z,1.86
2022-12-11T15:48:52.060Z,1.85
2022-12-11T15:51:18.561Z,1.85
2022-12-11T15:53:45.335Z,1.90
2022-12-11T15:56:18.498Z,1.90
2022-12-11T15:58:47.091Z,1.89
2022-12-11T16:01:13.612Z,1.82
2022-12-11T16:03:40.807Z,1.76
2022-12-11T16:06:12.393Z,1.69
2022-12-11T16:08:39.053Z,1.69
2022-12-11T16:11:05.729Z,1.72
2022-12-11T16:13:32.262Z,1.76
2022-12-11T16:15:58.849Z,1.69
2022-12-11T16:18:26.469Z,1.83
2022-12-11T16:20:53.873Z,1.82
2022-12-11T16:23:20.599Z,1.75
2022-12-11T16:25:47.690Z,1.76
2022-12-11T16:28:18.124Z,1.73
2022-12-11T16:30:45.390Z,1.73
2022-12-11T16:33:13.552Z,1.72
2022-12-11T16:35:41.957Z,1.73
2022-12-11T16:38:10.185Z,1.69
2022-12-11T16:40:37.871Z,1.69
2022-12-11T16:43:05.675Z,1.68
2022-12-11T16:45:33.541Z,1.70
2022-12-11T16:48:03.582Z,1.72
2022-12-11T16:50:30.195Z,1.73
2022-12-11T16:52:57.100Z,1.72
2022-12-11T16:55:23.678Z,1.66
2022-12-11T16:57:50.298Z,1.63
2022-12-11T17:00:17.166Z,1.70
2022-12-11T17:02:43.706Z,1.69
2022-12-11T17:05:10.784Z,1.69
2022-12-11T17:07:37.423Z,1.68
2022-12-11T17:10:04.928Z,1.65
2022-12-11T17:12:31.652Z,1.65
2022-12-11T17:14:58.224Z,1.65
2022-12-11T17:17:24.957Z,1.54
2022-12-11T17:19:51.886Z,1.49
2022-12-11T17:22:18.434Z,1.56
2022-12-11T17:24:47.296Z,1.48
2022-12-11T17:27:14.008Z,1.54
2022-12-11T17:29:40.599Z,1.48
2022-12-11T17:32:07.163Z,1.55
2022-12-11T17:34:38.197Z,1.45
2022-12-11T17:37:05.578Z,1.48
2022-12-11T17:39:32.286Z,1.49
2022-12-11T17:41:58.975Z,1.45
2022-12-11T17:44:26.787Z,1.47
2022-12-11T17:46:53.630Z,1.48
2022-12-11T17:49:20.336Z,1.49
2022-12-11T17:51:47.950Z,1.49
2022-12-11T17:54:14.793Z,1.48
2022-12-11T17:56:41.449Z,1.41
2022-12-11T17:59:07.993Z,1.39
2022-12-11T18:01:34.776Z,1.44
2022-12-11T18:04:04.063Z,1.44
2022-12-11T18:06:31.076Z,1.41
2022-12-11T18:08:58.210Z,1.42
2022-12-11T18:11:24.800Z,1.37
2022-12-11T18:13:52.667Z,1.47
2022-12-11T18:16:32.018Z,1.45
2022-12-11T18:18:58.865Z,1.44
2022-12-11T18:21:28.380Z,1.42
2022-12-11T18:23:55.473Z,1.45
2022-12-11T18:26:22.685Z,1.47
2022-12-11T18:28:50.638Z,1.41
2022-12-11T18:31:18.108Z,1.39
2022-12-11T18:33:45.489Z,1.42
2022-12-11T18:36:14.388Z,1.49
2022-12-11T18:38:42.145Z,1.41
2022-12-11T18:41:11.543Z,1.52
2022-12-11T18:43:38.360Z,1.45
2022-12-11T18:46:06.612Z,1.48
2022-12-11T18:48:33.127Z,1.47
2022-12-11T18:50:59.798Z,1.49
2022-12-11T18:53:26.346Z,1.42
2022-12-11T18:58:40.076Z,1.41
2022-12-11T19:01:08.391Z,1.39
2022-12-11T19:03:35.403Z,1.38
2022-12-11T19:06:13.691Z,1.41
2022-12-11T19:08:40.773Z,1.37
2022-12-11T19:11:07.850Z,1.44
2022-12-11T19:13:35.460Z,1.37
2022-12-11T19:16:02.151Z,1.37
2022-12-11T19:18:28.747Z,1.38
2022-12-11T19:21:04.947Z,1.38
2022-12-11T19:23:34.747Z,1.34
2022-12-11T19:26:01.195Z,1.32
2022-12-11T19:28:27.651Z,1.34
2022-12-11T19:30:54.127Z,1.35
2022-12-11T19:33:20.633Z,1.31
2022-12-11T19:35:47.273Z,1.28
2022-12-11T19:38:13.945Z,1.37
2022-12-11T19:40:42.564Z,1.35
2022-12-11T19:43:10.115Z,1.37
2022-12-11T19:45:36.800Z,1.38
2022-12-11T19:48:03.426Z,1.38
2022-12-11T19:50:30.007Z,1.42
2022-12-11T19:52:56.500Z,1.34
2022-12-11T19:55:22.969Z,1.31
2022-12-11T19:57:49.612Z,1.28
2022-12-11T20:00:16.374Z,1.34
2022-12-11T20:02:43.061Z,1.35
2022-12-11T20:05:10.036Z,1.32
2022-12-11T20:07:37.157Z,1.38
2022-12-11T20:10:03.846Z,1.34
2022-12-11T20:12:30.404Z,1.35
2022-12-11T20:14:56.853Z,1.41
2022-12-11T20:17:23.489Z,1.35
2022-12-11T20:19:50.148Z,1.27
2022-12-11T20:22:16.705Z,1.24
2022-12-11T20:24:43.205Z,1.31
2022-12-11T20:27:10.091Z,1.16
2022-12-11T20:29:37.883Z,1.26
2022-12-11T20:32:05.186Z,1.21
2022-12-11T20:34:31.720Z,1.24
2022-12-11T20:37:00.201Z,1.14
2022-12-11T20:39:27.119Z,1.16
2022-12-11T20:41:53.701Z,1.14
2022-12-11T20:44:20.445Z,1.20
2022-12-11T20:46:47.077Z,1.18
2022-12-11T20:49:13.547Z,1.30
2022-12-11T20:51:40.349Z,1.30
2022-12-11T20:54:06.952Z,1.30
2022-12-11T20:56:33.484Z,1.27
2022-12-11T20:59:00.763Z,1.23
2022-12-11T21:01:30.405Z,1.18
2022-12-11T21:03:58.076Z,1.14
2022-12-11T21:06:31.195Z,1.17
2022-12-11T21:08:59.950Z,1.08
2022-12-11T21:11:27.052Z,1.13
2022-12-11T21:13:53.842Z,1.08
2022-12-11T21:16:20.857Z,1.11
2022-12-11T21:18:48.279Z,1.14
2022-12-11T21:21:16.432Z,1.10
2022-12-11T21:23:43.527Z,1.01
2022-12-11T21:26:10.169Z,1.00
2022-12-11T21:28:38.017Z,0.91
2022-12-11T21:31:11.307Z,0.89
2022-12-11T21:33:37.818Z,0.86
2022-12-11T21:36:06.246Z,0.87
2022-12-11T21:38:33.485Z,0.83
2022-12-11T21:41:10.585Z,0.84
2022-12-11T21:43:43.382Z,0.80
2022-12-11T21:46:27.920Z,0.76
2022-12-11T21:48:54.742Z,0.72
2022-12-11T21:51:22.874Z,0.83
2022-12-11T21:53:49.631Z,0.83
2022-12-11T21:56:20.012Z,0.79
2022-12-11T21:58:48.121Z,0.80
2022-12-11T22:01:21.662Z,0.94
2022-12-11T22:03:48.929Z,0.89
2022-12-11T22:06:15.505Z,0.90
2022-12-11T22:08:42.319Z,0.93
2022-12-11T22:11:09.810Z,0.90
2022-12-11T22:13:36.756Z,0.94
2022-12-11T22:16:03.336Z,0.99
2022-12-11T22:18:30.049Z,0.93
2022-12-11T22:20:58.125Z,0.89
2022-12-11T22:23:25.136Z,0.90
2022-12-11T22:25:52.858Z,0.94
2022-12-11T22:28:19.551Z,0.87
2022-12-11T22:30:46.332Z,0.93
2022-12-11T22:33:13.497Z,0.91
2022-12-11T22:35:40.232Z,0.89
2022-12-11T22:38:07.102Z,0.89
2022-12-11T22:40:34.127Z,0.84
2022-12-11T22:43:03.225Z,0.86
2022-12-11T22:45:29.732Z,0.87
2022-12-11T22:47:56.504Z,0.89
2022-12-11T22:50:23.124Z,0.87
2022-12-11T22:52:49.668Z,0.84
2022-12-11T22:55:16.307Z,1.10
2022-12-11T22:57:42.777Z,1.00
2022-12-11T23:00:12.625Z,1.01
2022-12-11T23:02:39.342Z,1.03
2022-12-11T23:05:06.725Z,0.97
2022-12-11T23:07:33.239Z,0.96
2022-12-11T23:09:59.760Z,0.93
2022-12-11T23:12:26.289Z,0.89
2022-12-11T23:14:52.812Z,0.99
2022-12-11T23:17:19.305Z,1.05
2022-12-11T23:19:46.189Z,1.00
2022-12-11T23:22:13.390Z,0.99
2022-12-11T23:24:40.012Z,1.00
2022-12-11T23:27:06.881Z,0.94
2022-12-11T23:29:33.590Z,1.00
2022-12-11T23:32:00.091Z,0.94
2022-12-11T23:34:26.567Z,0.99
2022-12-11T23:36:53.102Z,1.00
2022-12-11T23:39:19.793Z,0.97
2022-12-11T23:41:46.320Z,1.03
2022-12-11T23:44:12.774Z,0.99
2022-12-11T23:46:39.364Z,1.07
2022-12-11T23:49:05.998Z,1.03
2022-12-11T23:51:32.471Z,1.08
2022-12-11T23:53:58.964Z,1.03
2022-12-11T23:56:27.873Z,1.13
2022-12-11T23:58:54.467Z,0.97
